Flight Track Log - Related Links

Times and Time Zones

All times are in EDT time to prevent confusion due to time zone crossing. See the FLG4149 flight status page for this flight to view local times or setup timezone preferences in your user account.

Time Position Orientation Groundspeed Altitude Reporting Facility
EDT Latitude Longitude Course Direction KTS MPH feet Rate Location/Type
Wed 07:06:39 AM 37.9936 -84.6336 82° East 167 192 3,000  Level Indianapolis Center
Wed 07:07:40 AM 37.9647 -84.5575 116° Southeast 269 310 4,900 2,459 Climbing Indianapolis Center
Wed 07:08:00 AM 38.0758 -84.1601 81° East  Level FlightAware Approximate
Wed 07:08:41 AM 37.9822 -84.4531 78° East 291 335 8,000  Level Indianapolis Center
Wed 07:09:00 AM 38.0966 -84.0139 79° East  Level FlightAware Approximate
Wed 07:09:42 AM 37.9983 -84.3461 79° East 304 350 10,000  Level Indianapolis Center
Wed 07:10:00 AM 38.1192 -83.8680 78° East  Level FlightAware Approximate
Wed 07:10:43 AM 38.0156 -84.2253 80° East 340 391 11,400  Level Indianapolis Center
Wed 07:11:00 AM 38.1402 -83.7218 82° East  Level FlightAware Approximate
Wed 07:11:44 AM 38.0347 -84.0931 80° East 373 429 13,200  Level Indianapolis Center
Wed 07:12:46 AM 38.0536 -83.9594 80° East 381 438 14,900 1,659 Climbing Indianapolis Center
Wed 07:13:47 AM 38.0744 -83.8192 79° East 396 456 16,600 1,623 Climbing Indianapolis Center
Wed 07:14:48 AM 38.0939 -83.6806 80° East 397 457 18,200 1,475 Climbing Indianapolis Center
Wed 07:15:49 AM 38.1125 -83.5419 80° East 398 458 19,600 1,328 Climbing Indianapolis Center
Wed 07:16:50 AM 38.1333 -83.3981 80° East 409 471 20,900 1,230 Climbing Indianapolis Center
Wed 07:17:51 AM 38.1531 -83.2531 80° East 414 476 22,100 1,220 Climbing Indianapolis Center
Wed 07:18:53 AM 38.1686 -83.0781 83° East 424 488 23,400 1,171 Climbing Indianapolis Center
Wed 07:19:54 AM 38.1750 -82.9264 87° East 427 491 24,500 1,082 Climbing Indianapolis Center
Wed 07:20:55 AM 38.1817 -82.7758 87° East 427 491 25,600 1,073 Climbing Indianapolis Center
Wed 07:21:57 AM 38.1886 -82.6250 87° East 425 489 26,700 683 Climbing Indianapolis Center
Wed 07:22:58 AM 38.1928 -82.4889 88° East 428 493 27,000 148 Climbing Indianapolis Center
Wed 07:23:59 AM 38.1994 -82.3275 87° East 455 524 27,000  Level Indianapolis Center
Wed 07:25:01 AM 38.2075 -82.1306 87° East 466 536 27,000  Level Indianapolis Center
Wed 07:26:02 AM 38.2142 -81.9633 87° East 475 547 27,000  Level Indianapolis Center
Wed 07:27:03 AM 38.2197 -81.7972 88° East 473 544 27,000  Level Indianapolis Center
Wed 07:28:05 AM 38.2253 -81.6317 88° East 474 545 27,000  Level Indianapolis Center
Wed 07:29:06 AM 38.2303 -81.4653 88° East 476 548 27,000  Level Indianapolis Center
Wed 07:30:08 AM 38.2356 -81.3000 88° East 473 544 27,000  Level Indianapolis Center
Wed 07:31:09 AM 38.2406 -81.1339 88° East 472 543 27,000  Level Indianapolis Center
Wed 07:32:11 AM 38.2453 -80.9325 88° East 476 548 27,000  Level Indianapolis Center
Wed 07:33:10 AM 38.2489 -80.7794 88° East 474 545 27,000  Level Washington Center
Wed 07:34:11 AM 38.2553 -80.6264 87° East 474 545 27,000  Level Washington Center
Wed 07:35:08 AM 38.2578 -80.4653 89° East 474 545 27,000  Level Washington Center
Wed 07:36:09 AM 38.2622 -80.3017 88° East 469 540 27,000  Level Washington Center
Wed 07:37:10 AM 38.2664 -80.1378 88° East 463 533 27,000  Level Washington Center
Wed 07:38:10 AM 38.2703 -79.9769 88° East 458 527 27,000  Level Washington Center
Wed 07:39:11 AM 38.2728 -79.7944 89° East 458 527 27,000 -202 Level Washington Center
Wed 07:40:09 AM 38.3072 -79.6428 74° East 448 516 26,600 -508 Descending Washington Center
Wed 07:41:09 AM 38.3578 -79.5028 65° Northeast 443 510 26,000 -298 Descending Washington Center
Wed 07:42:10 AM 38.4039 -79.3594 68° East 438 504 26,000  Level Washington Center
Wed 07:43:11 AM 38.4372 -79.2283 72° East 432 497 26,000  Level Washington Center
Wed 07:44:09 AM 38.4669 -79.0733 76° East 432 497 26,000 -605 Level Washington Center
Wed 07:45:10 AM 38.4942 -78.9181 77° East 438 504 24,800 -1,240 Descending Washington Center
Wed 07:46:10 AM 38.5150 -78.7678 80° East 438 504 23,500 -1,350 Descending Washington Center
Wed 07:47:10 AM 38.5375 -78.6203 79° East 433 498 22,100 -1,388 Descending Washington Center
Wed 07:48:11 AM 38.5600 -78.4750 79° East 427 491 20,700 -1,537 Descending Washington Center
Wed 07:49:11 AM 38.5839 -78.3353 78° East 416 479 19,000 -1,897 Descending Washington Center
Wed 07:50:08 AM 38.6119 -78.2061 74° East 394 453 17,000 -1,932 Descending Washington Center
Wed 07:51:09 AM 38.6500 -78.0825 68° East 376 433 15,200 -1,328 Descending Washington Center
Wed 07:52:10 AM 38.6856 -77.9747 67° East 355 409 14,300 -1,033 Descending Washington Center
Wed 07:53:11 AM 38.7231 -77.8586 67° East 323 372 13,100 -1,140 Descending Washington Center
Wed 07:54:11 AM 38.7750 -77.7697 53° Northeast 309 356 12,000 -1,077 Descending Washington Center
Wed 07:55:08 AM 38.8178 -77.7044 50° Northeast 303 349 11,000 -1,398 Descending Washington Center
Wed 07:55:54 AM 38.8667 -77.6167 54° Northeast 301 346 9,600 -1,528 Descending Potomac TRACON
Wed 07:56:54 AM 38.9333 -77.5500 38° Northeast 284 327 8,300 -1,100 Descending Potomac TRACON
Wed 07:57:54 AM 38.9667 -77.4667 63° Northeast 271 312 7,400 -1,053 Descending Potomac TRACON
Wed 07:58:48 AM 38.9833 -77.3833 76° East 248 285 6,300 -1,316 Descending Potomac TRACON
Wed 07:59:48 AM 39.0000 -77.3000 76° East 252 290 4,900 -1,300 Descending Potomac TRACON
Wed 08:00:48 AM 38.9833 -77.2167 104° East 248 285 3,700 -1,200 Descending Potomac TRACON

Login

Don't have an account? Register now (free) for customized features, flight alerts, and more!